createdAt,value
2018-10-07T00:00:39.117Z,17.63
2018-10-07T00:03:11.159Z,19.47
2018-10-07T00:05:43.295Z,31.37
2018-10-07T00:08:15.314Z,22.63
2018-10-07T00:10:47.310Z,21.07
2018-10-07T00:13:19.327Z,21.97
2018-10-07T00:15:51.306Z,20.70
2018-10-07T00:18:23.321Z,26.73
2018-10-07T00:20:55.334Z,22.17
2018-10-07T00:23:27.335Z,18.87
2018-10-07T00:25:59.363Z,16.63
2018-10-07T00:28:31.382Z,15.00
2018-10-07T00:31:03.556Z,15.40
2018-10-07T00:33:35.562Z,28.03
2018-10-07T00:36:07.591Z,14.70
2018-10-07T00:38:39.600Z,22.43
2018-10-07T00:41:11.614Z,18.33
2018-10-07T00:43:43.628Z,17.37
2018-10-07T00:46:15.667Z,20.20
2018-10-07T00:48:47.622Z,15.87
2018-10-07T00:51:19.645Z,32.90
2018-10-07T00:53:51.631Z,17.47
2018-10-07T00:56:23.633Z,22.20
2018-10-07T00:58:55.630Z,22.33
2018-10-07T01:01:27.643Z,18.20
2018-10-07T01:03:59.625Z,19.13
2018-10-07T01:06:31.666Z,16.43
2018-10-07T01:09:06.688Z,21.77
2018-10-07T01:11:38.978Z,20.37
2018-10-07T01:14:11.256Z,18.63
2018-10-07T01:16:43.273Z,17.30
2018-10-07T01:19:15.279Z,23.23
2018-10-07T01:21:47.295Z,21.70
2018-10-07T01:24:19.349Z,21.80
2018-10-07T01:26:51.339Z,23.03
2018-10-07T01:29:23.333Z,14.67
2018-10-07T01:31:55.349Z,20.70
2018-10-07T01:34:27.356Z,17.10
2018-10-07T01:36:59.347Z,26.07
2018-10-07T01:39:31.354Z,18.93
2018-10-07T01:42:03.331Z,23.47
2018-10-07T01:44:35.331Z,19.47
2018-10-07T01:47:07.320Z,19.83
2018-10-07T01:49:39.358Z,18.47
2018-10-07T01:52:11.338Z,20.00
2018-10-07T01:54:43.365Z,26.43
2018-10-07T01:57:15.366Z,18.33
2018-10-07T01:59:47.405Z,21.40
2018-10-07T02:02:19.400Z,26.83
2018-10-07T02:04:51.509Z,17.13
2018-10-07T02:07:23.517Z,21.63
2018-10-07T02:09:55.526Z,21.20
2018-10-07T02:12:27.505Z,20.97
2018-10-07T02:14:59.518Z,17.70
2018-10-07T02:17:31.559Z,21.10
2018-10-07T02:20:03.557Z,18.90
2018-10-07T02:22:35.558Z,18.80
2018-10-07T02:25:07.551Z,21.10
2018-10-07T02:27:39.590Z,29.17
2018-10-07T02:30:11.634Z,24.13
2018-10-07T02:32:43.681Z,24.77
2018-10-07T02:35:15.698Z,30.73
2018-10-07T02:37:48.493Z,15.43
2018-10-07T02:40:20.577Z,17.93
2018-10-07T02:42:52.603Z,18.00
2018-10-07T02:45:24.643Z,17.63
2018-10-07T02:47:56.659Z,18.50
2018-10-07T02:50:28.667Z,20.50
2018-10-07T02:53:00.685Z,17.67
2018-10-07T02:55:32.726Z,22.60
2018-10-07T02:58:04.753Z,24.40
2018-10-07T03:00:36.826Z,24.97
2018-10-07T03:03:08.808Z,21.80
2018-10-07T03:05:40.849Z,21.10
2018-10-07T03:08:12.831Z,30.07
2018-10-07T03:10:44.865Z,27.23
2018-10-07T03:13:16.879Z,23.57
2018-10-07T03:15:48.879Z,21.87
2018-10-07T03:18:20.893Z,28.90
2018-10-07T03:20:52.879Z,24.30
2018-10-07T03:23:24.901Z,25.00
2018-10-07T03:25:56.924Z,22.77
2018-10-07T03:28:28.935Z,24.00
2018-10-07T03:31:00.914Z,20.10
2018-10-07T03:33:32.939Z,26.33
2018-10-07T03:36:04.972Z,22.57
2018-10-07T03:38:36.982Z,27.90
2018-10-07T03:41:08.995Z,22.23
2018-10-07T03:43:41.968Z,24.13
2018-10-07T03:46:13.971Z,25.30
2018-10-07T03:48:46.010Z,30.13
2018-10-07T03:51:17.999Z,25.20
2018-10-07T03:53:50.046Z,23.37
2018-10-07T03:56:22.071Z,25.90
2018-10-07T03:58:54.086Z,31.73
2018-10-07T04:01:26.099Z,26.30
2018-10-07T04:03:58.123Z,27.63
2018-10-07T04:06:30.199Z,30.57
2018-10-07T04:09:02.218Z,30.87
2018-10-07T04:11:34.249Z,26.30
2018-10-07T04:14:06.262Z,26.03
2018-10-07T04:16:38.261Z,31.57
2018-10-07T04:19:10.774Z,26.13
2018-10-07T04:21:46.936Z,30.53
2018-10-07T04:24:19.030Z,31.03
2018-10-07T04:26:51.033Z,28.87
2018-10-07T04:29:23.058Z,29.03
2018-10-07T04:31:55.151Z,34.50
2018-10-07T04:34:27.159Z,30.27
2018-10-07T04:36:59.138Z,36.07
2018-10-07T04:39:31.153Z,30.43
2018-10-07T04:42:03.144Z,27.60
2018-10-07T04:44:35.146Z,28.30
2018-10-07T04:47:07.129Z,24.53
2018-10-07T04:49:39.122Z,27.57
2018-10-07T04:52:11.134Z,24.43
2018-10-07T04:54:43.157Z,18.47
2018-10-07T04:57:15.274Z,22.77
2018-10-07T04:59:47.266Z,30.53
2018-10-07T05:02:19.290Z,26.23
2018-10-07T05:04:51.263Z,23.33
2018-10-07T05:07:23.316Z,24.10
2018-10-07T05:10:07.100Z,20.70
2018-10-07T05:12:39.133Z,24.27
2018-10-07T05:15:11.134Z,27.07
2018-10-07T05:17:43.154Z,28.90
2018-10-07T05:20:15.121Z,29.77
2018-10-07T05:22:47.158Z,29.83
2018-10-07T05:25:19.151Z,27.90
2018-10-07T05:27:51.190Z,38.60
2018-10-07T05:30:23.265Z,27.03
2018-10-07T05:32:55.317Z,34.47
2018-10-07T05:35:27.390Z,33.77
2018-10-07T05:37:59.724Z,34.33
2018-10-07T05:40:31.725Z,36.30
2018-10-07T05:43:03.771Z,39.23
2018-10-07T05:45:35.761Z,36.70
2018-10-07T05:48:07.778Z,35.90
2018-10-07T05:50:39.782Z,37.13
2018-10-07T05:53:11.794Z,36.80
2018-10-07T05:55:43.863Z,43.53
2018-10-07T05:58:15.846Z,42.40
2018-10-07T06:00:47.870Z,41.13
2018-10-07T06:03:22.966Z,43.70
2018-10-07T06:05:54.975Z,40.63
2018-10-07T06:08:27.014Z,41.33
2018-10-07T06:10:59.076Z,52.20
2018-10-07T06:13:31.084Z,51.47
2018-10-07T06:16:05.966Z,50.47
2018-10-07T06:18:38.009Z,48.97
2018-10-07T06:21:10.046Z,55.03
2018-10-07T06:23:42.087Z,53.83
2018-10-07T06:26:14.093Z,59.33
2018-10-07T06:28:46.129Z,56.23
2018-10-07T06:31:18.149Z,58.97
2018-10-07T06:33:50.151Z,55.03
2018-10-07T06:36:22.202Z,59.87
2018-10-07T06:38:54.274Z,69.07
2018-10-07T06:41:26.336Z,67.17
2018-10-07T06:43:58.351Z,71.93
2018-10-07T06:46:30.324Z,68.97
2018-10-07T06:49:02.347Z,68.60
2018-10-07T06:51:34.735Z,74.23
2018-10-07T06:54:06.742Z,70.20
2018-10-07T06:56:38.767Z,69.37
2018-10-07T06:59:10.819Z,66.00
2018-10-07T07:01:42.834Z,62.27
2018-10-07T07:04:14.864Z,53.27
2018-10-07T07:06:46.894Z,54.53
2018-10-07T07:09:19.006Z,45.20
2018-10-07T07:11:51.026Z,43.13
2018-10-07T07:14:23.031Z,37.37
2018-10-07T07:16:55.005Z,19.27
2018-10-07T07:19:27.022Z,13.30
2018-10-07T07:21:59.053Z,14.47
2018-10-07T07:24:31.045Z,10.77
2018-10-07T07:27:03.067Z,10.90
2018-10-07T07:29:35.117Z,11.77
2018-10-07T07:32:07.098Z,11.67
2018-10-07T07:34:39.197Z,14.03
2018-10-07T07:37:11.218Z,9.80
2018-10-07T07:39:43.214Z,14.43
2018-10-07T07:42:15.291Z,9.63
2018-10-07T07:44:47.246Z,12.33
2018-10-07T07:47:19.309Z,11.27
2018-10-07T07:49:51.296Z,9.40
2018-10-07T07:52:23.317Z,11.70
2018-10-07T07:54:55.327Z,9.83
2018-10-07T07:57:27.334Z,10.50
2018-10-07T07:59:59.357Z,12.47
2018-10-07T08:02:31.357Z,15.30
2018-10-07T08:05:03.422Z,12.27
2018-10-07T08:07:35.445Z,15.83
2018-10-07T08:10:07.460Z,13.17
2018-10-07T08:12:39.680Z,15.93
2018-10-07T08:15:11.702Z,10.73
2018-10-07T08:17:43.780Z,8.63
2018-10-07T08:20:15.770Z,5.57
2018-10-07T08:22:47.774Z,4.37
2018-10-07T08:25:19.801Z,6.40
2018-10-07T08:27:51.832Z,6.03
2018-10-07T08:30:23.843Z,6.13
2018-10-07T08:32:55.849Z,4.30
2018-10-07T08:35:27.842Z,5.73
2018-10-07T08:37:59.855Z,3.93
2018-10-07T08:40:31.838Z,5.77
2018-10-07T08:43:03.898Z,3.70
2018-10-07T08:45:35.892Z,2.83
2018-10-07T08:48:07.910Z,2.60
2018-10-07T08:50:39.894Z,5.10
2018-10-07T08:53:11.927Z,2.00
2018-10-07T08:55:43.916Z,4.67
2018-10-07T08:58:22.728Z,1.83
2018-10-07T09:00:54.757Z,2.07
2018-10-07T09:03:26.770Z,2.30
2018-10-07T09:05:58.796Z,5.03
2018-10-07T09:08:30.813Z,3.63
2018-10-07T09:11:02.880Z,4.70
2018-10-07T09:13:34.865Z,2.57
2018-10-07T09:16:06.902Z,1.97
2018-10-07T09:18:38.919Z,3.70
2018-10-07T09:21:10.939Z,2.13
2018-10-07T09:23:42.976Z,1.67
2018-10-07T09:26:14.997Z,2.13
2018-10-07T09:28:47.022Z,2.30
2018-10-07T09:31:19.051Z,4.63
2018-10-07T09:33:51.102Z,1.80
2018-10-07T09:36:23.079Z,2.63
2018-10-07T09:38:55.106Z,0.77
2018-10-07T09:41:27.126Z,1.20
2018-10-07T09:43:59.137Z,3.30
2018-10-07T09:46:31.202Z,1.87
2018-10-07T09:49:04.093Z,5.10
2018-10-07T09:51:36.286Z,1.80
2018-10-07T09:54:08.275Z,2.70
2018-10-07T09:56:40.507Z,0.87
2018-10-07T09:59:12.726Z,2.77
2018-10-07T10:01:44.731Z,1.43
2018-10-07T10:04:16.810Z,1.60
2018-10-07T10:06:48.803Z,2.97
2018-10-07T10:09:20.834Z,2.83
2018-10-07T10:11:52.926Z,1.30
2018-10-07T10:14:24.955Z,2.13
2018-10-07T10:17:00.142Z,2.93
2018-10-07T10:19:39.448Z,4.80
2018-10-07T10:22:21.878Z,4.63
2018-10-07T10:25:05.801Z,5.17
2018-10-07T10:29:50.909Z,3.73
2018-10-07T10:32:26.651Z,3.53
2018-10-07T10:35:05.090Z,2.70
2018-10-07T10:37:59.481Z,2.67
2018-10-07T10:40:34.908Z,0.93
2018-10-07T10:43:17.150Z,1.63
2018-10-07T10:45:59.751Z,3.53
2018-10-07T10:48:53.230Z,3.70
2018-10-07T10:51:32.141Z,4.90
2018-10-07T10:54:07.466Z,4.70
2018-10-07T10:56:47.002Z,1.67
2018-10-07T10:59:28.192Z,1.47
2018-10-07T11:04:16.722Z,1.30
2018-10-07T11:06:54.066Z,2.47
2018-10-07T11:11:41.175Z,2.70
2018-10-07T11:15:24.510Z,3.23
2018-10-07T11:18:02.914Z,6.93
2018-10-07T11:21:50.782Z,1.30
2018-10-07T11:24:37.192Z,8.30
2018-10-07T11:27:23.474Z,19.20
2018-10-07T11:30:08.387Z,9.43
2018-10-07T11:32:57.326Z,2.27
2018-10-07T11:36:08.539Z,5.87
2018-10-07T11:39:17.047Z,3.33
2018-10-07T11:42:01.290Z,4.07
2018-10-07T11:45:10.362Z,2.70
2018-10-07T11:47:53.214Z,4.80
2018-10-07T11:50:29.770Z,2.77
2018-10-07T11:53:14.902Z,3.27
2018-10-07T11:55:46.928Z,2.53
2018-10-07T11:58:18.947Z,3.73
2018-10-07T12:00:50.942Z,9.93
2018-10-07T12:03:23.050Z,1.13
2018-10-07T12:05:55.076Z,5.03
2018-10-07T12:08:27.133Z,4.37
2018-10-07T12:10:59.170Z,3.27
2018-10-07T12:13:31.163Z,1.17
2018-10-07T12:16:06.026Z,3.30
2018-10-07T12:18:38.053Z,2.77
2018-10-07T12:21:10.178Z,1.40
2018-10-07T12:23:42.270Z,1.77
2018-10-07T12:26:14.289Z,2.17
2018-10-07T12:28:46.282Z,1.67
2018-10-07T12:31:18.291Z,2.27
2018-10-07T12:33:50.306Z,5.80
2018-10-07T12:36:22.338Z,2.60
2018-10-07T12:38:54.329Z,2.40
2018-10-07T12:41:26.370Z,1.50
2018-10-07T12:43:58.403Z,6.00
2018-10-07T12:46:30.438Z,1.83
2018-10-07T12:49:02.605Z,4.20
2018-10-07T12:51:34.690Z,4.10
2018-10-07T12:54:06.724Z,1.30
2018-10-07T12:56:38.892Z,3.57
2018-10-07T12:59:10.930Z,1.97
2018-10-07T13:01:42.945Z,4.20
2018-10-07T13:04:14.938Z,3.97
2018-10-07T13:06:46.971Z,2.63
2018-10-07T13:09:18.981Z,0.93
2018-10-07T13:11:50.999Z,6.17
2018-10-07T13:14:24.208Z,3.53
2018-10-07T13:16:56.253Z,2.73
2018-10-07T13:19:28.264Z,3.50
2018-10-07T13:22:00.293Z,5.90
2018-10-07T13:24:32.284Z,5.73
2018-10-07T13:27:04.387Z,3.10
2018-10-07T13:29:36.406Z,4.20
2018-10-07T13:32:08.807Z,2.67
2018-10-07T13:34:40.865Z,2.03
2018-10-07T13:37:12.894Z,8.10
2018-10-07T13:39:45.011Z,2.00
2018-10-07T13:42:17.058Z,7.37
2018-10-07T13:44:49.038Z,5.10
2018-10-07T13:47:22.344Z,2.13
2018-10-07T13:49:54.338Z,3.07
2018-10-07T13:52:26.485Z,1.93
2018-10-07T13:54:59.294Z,2.73
2018-10-07T13:57:31.335Z,4.83
2018-10-07T14:00:03.476Z,2.57
2018-10-07T14:02:35.508Z,2.97
2018-10-07T14:05:07.549Z,3.03
2018-10-07T14:07:39.579Z,4.27
2018-10-07T14:10:11.598Z,1.73
2018-10-07T14:12:43.618Z,3.37
2018-10-07T14:15:15.588Z,4.50
2018-10-07T14:17:47.657Z,1.90
2018-10-07T14:20:19.713Z,2.83
2018-10-07T14:22:51.759Z,2.10
2018-10-07T14:25:23.801Z,2.27
2018-10-07T14:27:55.819Z,9.60
2018-10-07T14:30:27.819Z,4.10
2018-10-07T14:32:59.866Z,1.90
2018-10-07T14:35:33.225Z,4.80
2018-10-07T14:38:05.983Z,2.23
2018-10-07T14:40:38.218Z,3.73
2018-10-07T14:43:10.217Z,3.07
2018-10-07T14:45:42.208Z,3.77
2018-10-07T14:48:14.245Z,5.40
2018-10-07T14:50:46.237Z,6.93
2018-10-07T14:53:18.259Z,7.30
2018-10-07T14:55:50.340Z,6.03
2018-10-07T14:58:22.379Z,4.90
2018-10-07T15:00:54.422Z,6.93
2018-10-07T15:03:26.378Z,4.17
2018-10-07T15:06:05.210Z,3.17
2018-10-07T15:08:37.204Z,7.67
2018-10-07T15:11:09.229Z,4.40
2018-10-07T15:13:41.214Z,2.03
2018-10-07T15:16:13.283Z,5.07
2018-10-07T15:18:45.266Z,6.43
2018-10-07T15:21:17.322Z,1.73
2018-10-07T15:23:49.561Z,2.67
2018-10-07T15:26:21.550Z,3.13
2018-10-07T15:28:53.553Z,9.87
2018-10-07T15:31:25.597Z,6.97
2018-10-07T15:33:57.583Z,2.83
2018-10-07T15:36:29.660Z,2.03
2018-10-07T15:39:01.719Z,5.53
2018-10-07T15:41:33.733Z,2.50
2018-10-07T15:44:05.754Z,3.83
2018-10-07T15:46:37.791Z,3.77
2018-10-07T15:49:09.886Z,4.73
2018-10-07T15:51:41.890Z,5.63
2018-10-07T15:54:13.912Z,11.43
2018-10-07T15:56:46.031Z,6.07
2018-10-07T15:59:18.010Z,2.97
2018-10-07T16:01:50.160Z,1.90
2018-10-07T16:04:22.366Z,3.73
2018-10-07T16:06:54.400Z,6.13
2018-10-07T16:09:26.510Z,5.57
2018-10-07T16:11:58.515Z,10.97
2018-10-07T16:14:30.505Z,13.63
2018-10-07T16:17:02.531Z,9.87
2018-10-07T16:19:34.546Z,8.30
2018-10-07T16:22:06.570Z,16.57
2018-10-07T16:24:38.574Z,25.77
2018-10-07T16:27:19.771Z,33.53
2018-10-07T16:29:51.818Z,40.87
2018-10-07T16:32:23.991Z,38.57
2018-10-07T16:34:55.919Z,28.60
2018-10-07T16:37:28.038Z,23.00
2018-10-07T16:40:00.076Z,23.97
2018-10-07T16:42:32.100Z,23.43
2018-10-07T16:45:04.450Z,27.13
2018-10-07T16:47:36.426Z,16.53
2018-10-07T16:50:08.455Z,14.63
2018-10-07T16:52:40.518Z,5.07
2018-10-07T16:55:12.515Z,5.50
2018-10-07T16:57:44.531Z,16.13
2018-10-07T17:00:16.559Z,7.80
2018-10-07T17:02:48.575Z,10.03
2018-10-07T17:05:22.508Z,8.30
2018-10-07T17:07:54.610Z,7.13
2018-10-07T17:10:28.929Z,10.97
2018-10-07T17:13:00.987Z,8.17
2018-10-07T17:15:33.006Z,2.77
2018-10-07T17:18:05.098Z,6.90
2018-10-07T17:20:37.222Z,9.87
2018-10-07T17:23:09.236Z,12.27
2018-10-07T17:25:41.259Z,10.30
2018-10-07T17:28:13.314Z,14.90
2018-10-07T17:30:45.306Z,12.10
2018-10-07T17:33:17.321Z,14.03
2018-10-07T17:35:49.322Z,11.80
2018-10-07T17:38:21.488Z,15.60
2018-10-07T17:40:53.523Z,9.87
2018-10-07T17:43:25.558Z,16.30
2018-10-07T17:45:57.665Z,14.53
2018-10-07T17:48:29.820Z,14.00
2018-10-07T17:51:01.827Z,20.80
2018-10-07T17:53:33.914Z,13.30
2018-10-07T17:56:06.104Z,17.83
2018-10-07T17:58:38.133Z,18.00
2018-10-07T18:01:10.194Z,13.77
2018-10-07T18:03:42.229Z,9.20
2018-10-07T18:06:14.240Z,9.90
2018-10-07T18:08:46.258Z,8.83
2018-10-07T18:11:18.356Z,6.40
2018-10-07T18:13:50.422Z,6.03
2018-10-07T18:16:22.447Z,5.27
2018-10-07T18:18:54.449Z,8.67
2018-10-07T18:21:26.459Z,17.70
2018-10-07T18:23:58.482Z,9.70
2018-10-07T18:26:30.862Z,13.43
2018-10-07T18:29:02.921Z,11.00
2018-10-07T18:31:35.034Z,9.93
2018-10-07T18:34:07.193Z,10.33
2018-10-07T18:36:39.197Z,8.23
2018-10-07T18:39:11.196Z,11.00
2018-10-07T18:41:43.203Z,8.63
2018-10-07T18:44:15.200Z,6.03
2018-10-07T18:46:47.377Z,8.60
2018-10-07T18:49:19.532Z,8.47
2018-10-07T18:51:51.683Z,5.23
2018-10-07T18:54:23.833Z,6.80
2018-10-07T18:56:55.938Z,4.33
2018-10-07T18:59:27.947Z,4.17
2018-10-07T19:01:59.969Z,3.43
2018-10-07T19:04:32.094Z,6.60
2018-10-07T19:07:04.138Z,9.80
2018-10-07T19:09:36.134Z,7.27
2018-10-07T19:12:08.240Z,8.13
2018-10-07T19:14:40.396Z,8.27
2018-10-07T19:17:12.427Z,12.13
2018-10-07T19:19:44.468Z,9.20
2018-10-07T19:22:16.482Z,10.10
2018-10-07T19:24:48.877Z,7.27
2018-10-07T19:27:20.926Z,12.03
2018-10-07T19:29:52.959Z,6.97
2018-10-07T19:32:25.007Z,8.77
2018-10-07T19:34:57.011Z,11.77
2018-10-07T19:37:29.203Z,13.93
2018-10-07T19:40:01.172Z,20.23
2018-10-07T19:42:33.210Z,11.07
2018-10-07T19:45:05.263Z,11.10
2018-10-07T19:47:37.308Z,10.07
2018-10-07T19:50:09.375Z,10.23
2018-10-07T19:52:41.414Z,11.70
2018-10-07T19:55:13.528Z,6.37
2018-10-07T19:57:45.818Z,10.93
2018-10-07T20:00:17.830Z,7.70
2018-10-07T20:02:49.815Z,8.43
2018-10-07T20:05:21.842Z,8.80
2018-10-07T20:07:53.811Z,15.77
2018-10-07T20:10:25.834Z,9.63
2018-10-07T20:12:57.834Z,11.47
2018-10-07T20:15:29.844Z,7.10
2018-10-07T20:18:01.935Z,10.17
2018-10-07T20:20:33.927Z,6.73
2018-10-07T20:23:05.945Z,8.23
2018-10-07T20:25:38.003Z,8.53
2018-10-07T20:28:10.020Z,8.90
2018-10-07T20:30:42.006Z,8.90
2018-10-07T20:33:13.974Z,5.77
2018-10-07T20:35:45.993Z,8.67
2018-10-07T20:38:17.978Z,6.73
2018-10-07T20:40:50.108Z,7.93
2018-10-07T20:43:21.991Z,5.03
2018-10-07T20:45:53.999Z,9.80
2018-10-07T20:48:26.013Z,7.67
2018-10-07T20:50:58.026Z,7.47
2018-10-07T20:53:30.122Z,9.63
2018-10-07T20:56:02.138Z,9.23
2018-10-07T20:58:34.251Z,7.03
2018-10-07T21:01:06.439Z,7.13
2018-10-07T21:03:38.480Z,6.43
2018-10-07T21:06:10.473Z,5.50
2018-10-07T21:08:42.498Z,10.17
2018-10-07T21:11:14.525Z,9.53
2018-10-07T21:13:46.503Z,11.33
2018-10-07T21:16:18.518Z,6.43
2018-10-07T21:18:50.495Z,8.57
2018-10-07T21:21:22.510Z,8.47
2018-10-07T21:23:54.495Z,6.90
2018-10-07T21:26:26.513Z,8.50
2018-10-07T21:28:58.504Z,9.67
2018-10-07T21:31:30.529Z,10.80
2018-10-07T21:34:02.514Z,9.97
2018-10-07T21:36:34.517Z,16.57
2018-10-07T21:39:06.952Z,9.97
2018-10-07T21:41:38.999Z,7.47
2018-10-07T21:44:10.985Z,7.73
2018-10-07T21:46:43.055Z,14.30
2018-10-07T21:49:15.043Z,10.57
2018-10-07T21:51:47.038Z,9.00
2018-10-07T21:54:19.046Z,7.97
2018-10-07T21:56:51.043Z,9.50
2018-10-07T21:59:23.062Z,13.37
2018-10-07T22:01:55.103Z,10.23
2018-10-07T22:04:27.114Z,12.93
2018-10-07T22:06:59.130Z,9.53
2018-10-07T22:09:31.136Z,16.00
2018-10-07T22:12:03.118Z,9.60
2018-10-07T22:14:35.122Z,12.33
2018-10-07T22:17:07.109Z,13.83
2018-10-07T22:19:39.108Z,15.67
2018-10-07T22:22:11.107Z,21.37
2018-10-07T22:24:43.140Z,14.87
2018-10-07T22:27:15.148Z,13.80
2018-10-07T22:29:47.177Z,12.37
2018-10-07T22:32:19.158Z,11.13
2018-10-07T22:34:51.171Z,10.27
2018-10-07T22:37:23.149Z,9.27
2018-10-07T22:39:55.154Z,9.43
2018-10-07T22:42:27.126Z,11.30
2018-10-07T22:44:59.142Z,15.27
2018-10-07T22:47:31.209Z,10.27
2018-10-07T22:50:03.250Z,12.73
2018-10-07T22:52:35.255Z,12.50
2018-10-07T22:55:07.261Z,15.43
2018-10-07T22:57:39.282Z,8.83
2018-10-07T23:00:11.267Z,9.47
2018-10-07T23:02:43.271Z,11.70
2018-10-07T23:05:15.312Z,7.50
2018-10-07T23:07:47.348Z,14.20
2018-10-07T23:10:19.330Z,9.23
2018-10-07T23:12:51.390Z,10.83
2018-10-07T23:15:23.362Z,8.03
2018-10-07T23:17:55.383Z,15.40
2018-10-07T23:20:27.397Z,16.63
2018-10-07T23:22:59.407Z,10.63
2018-10-07T23:25:31.422Z,14.30
2018-10-07T23:28:03.463Z,12.03
2018-10-07T23:30:35.537Z,11.10
2018-10-07T23:33:07.515Z,8.37
2018-10-07T23:35:39.530Z,15.77
2018-10-07T23:38:11.514Z,10.33
2018-10-07T23:40:45.202Z,8.90
2018-10-07T23:43:17.194Z,6.60
2018-10-07T23:45:49.231Z,8.57
2018-10-07T23:48:21.259Z,10.07
2018-10-07T23:50:53.277Z,9.73
2018-10-07T23:53:25.265Z,23.83
2018-10-07T23:55:57.305Z,10.33
2018-10-07T23:58:29.297Z,12.10
